sensor_id;sensor_type;location;lat;lon;timestamp;P1;durP1;ratioP1;P2;durP2;ratioP2
71763;SDS011;59602;52.142;5.408;2023-06-14T00:02:26;4.85;;;1.73;;
71763;SDS011;59602;52.142;5.408;2023-06-14T00:04:52;6.03;;;1.60;;
71763;SDS011;59602;52.142;5.408;2023-06-14T00:07:21;4.15;;;1.27;;
71763;SDS011;59602;52.142;5.408;2023-06-14T00:10:01;3.53;;;1.38;;
71763;SDS011;59602;52.142;5.408;2023-06-14T00:12:28;4.23;;;1.40;;
71763;SDS011;59602;52.142;5.408;2023-06-14T00:14:55;3.65;;;1.33;;
71763;SDS011;59602;52.142;5.408;2023-06-14T00:17:21;3.15;;;1.50;;
71763;SDS011;59602;52.142;5.408;2023-06-14T00:19:48;3.53;;;1.63;;
71763;SDS011;59602;52.142;5.408;2023-06-14T00:22:15;4.93;;;1.60;;
71763;SDS011;59602;52.142;5.408;2023-06-14T00:24:42;4.60;;;1.73;;
71763;SDS011;59602;52.142;5.408;2023-06-14T00:27:09;8.68;;;1.50;;
71763;SDS011;59602;52.142;5.408;2023-06-14T00:29:36;3.50;;;1.60;;
71763;SDS011;59602;52.142;5.408;2023-06-14T00:32:03;4.82;;;1.90;;
71763;SDS011;59602;52.142;5.408;2023-06-14T00:34:29;2.50;;;1.40;;
71763;SDS011;59602;52.142;5.408;2023-06-14T00:36:56;4.40;;;1.30;;
71763;SDS011;59602;52.142;5.408;2023-06-14T00:39:23;3.88;;;1.23;;
71763;SDS011;59602;52.142;5.408;2023-06-14T00:41:49;7.85;;;1.48;;
71763;SDS011;59602;52.142;5.408;2023-06-14T00:44:16;5.15;;;1.48;;
71763;SDS011;59602;52.142;5.408;2023-06-14T00:46:45;5.03;;;1.40;;
71763;SDS011;59602;52.142;5.408;2023-06-14T00:49:12;3.07;;;0.90;;
71763;SDS011;59602;52.142;5.408;2023-06-14T00:51:41;4.97;;;1.40;;
71763;SDS011;59602;52.142;5.408;2023-06-14T00:54:08;4.90;;;1.30;;
71763;SDS011;59602;52.142;5.408;2023-06-14T00:56:36;4.22;;;1.27;;
71763;SDS011;59602;52.142;5.408;2023-06-14T00:59:03;4.18;;;1.38;;
71763;SDS011;59602;52.142;5.408;2023-06-14T01:01:30;4.70;;;1.33;;
71763;SDS011;59602;52.142;5.408;2023-06-14T01:04:03;5.90;;;1.70;;
71763;SDS011;59602;52.142;5.408;2023-06-14T01:06:45;4.93;;;1.45;;
71763;SDS011;59602;52.142;5.408;2023-06-14T01:09:27;5.18;;;1.20;;
71763;SDS011;59602;52.142;5.408;2023-06-14T01:12:51;4.07;;;1.55;;
71763;SDS011;59602;52.142;5.408;2023-06-14T01:15:19;4.30;;;1.33;;
71763;SDS011;59602;52.142;5.408;2023-06-14T01:17:48;3.45;;;1.38;;
71763;SDS011;59602;52.142;5.408;2023-06-14T01:20:19;3.65;;;1.20;;
71763;SDS011;59602;52.142;5.408;2023-06-14T01:22:50;2.90;;;1.20;;
71763;SDS011;59602;52.142;5.408;2023-06-14T01:25:22;4.93;;;1.67;;
71763;SDS011;59602;52.142;5.408;2023-06-14T01:27:50;4.70;;;1.40;;
71763;SDS011;59602;52.142;5.408;2023-06-14T01:30:20;2.85;;;1.23;;
71763;SDS011;59602;52.142;5.408;2023-06-14T01:32:48;4.55;;;1.25;;
71763;SDS011;59602;52.142;5.408;2023-06-14T01:35:16;5.00;;;1.33;;
71763;SDS011;59602;52.142;5.408;2023-06-14T01:37:44;5.07;;;1.58;;
71763;SDS011;59602;52.142;5.408;2023-06-14T01:40:13;4.10;;;1.30;;
71763;SDS011;59602;52.142;5.408;2023-06-14T01:42:42;5.32;;;1.50;;
71763;SDS011;59602;52.142;5.408;2023-06-14T01:45:13;2.90;;;1.10;;
71763;SDS011;59602;52.142;5.408;2023-06-14T01:47:41;3.15;;;1.33;;
71763;SDS011;59602;52.142;5.408;2023-06-14T01:50:08;4.55;;;1.50;;
71763;SDS011;59602;52.142;5.408;2023-06-14T01:52:36;6.07;;;1.00;;
71763;SDS011;59602;52.142;5.408;2023-06-14T01:55:04;3.00;;;1.35;;
71763;SDS011;59602;52.142;5.408;2023-06-14T01:57:31;5.30;;;1.25;;
71763;SDS011;59602;52.142;5.408;2023-06-14T01:59:58;3.97;;;1.30;;
71763;SDS011;59602;52.142;5.408;2023-06-14T02:02:24;4.13;;;1.30;;
71763;SDS011;59602;52.142;5.408;2023-06-14T02:04:51;3.57;;;1.23;;
71763;SDS011;59602;52.142;5.408;2023-06-14T02:07:18;6.60;;;1.40;;
71763;SDS011;59602;52.142;5.408;2023-06-14T02:09:45;2.42;;;1.10;;
71763;SDS011;59602;52.142;5.408;2023-06-14T02:12:11;3.90;;;1.30;;
71763;SDS011;59602;52.142;5.408;2023-06-14T02:14:38;3.92;;;1.50;;
71763;SDS011;59602;52.142;5.408;2023-06-14T02:17:05;2.00;;;1.00;;
71763;SDS011;59602;52.142;5.408;2023-06-14T02:19:32;4.70;;;1.02;;
71763;SDS011;59602;52.142;5.408;2023-06-14T02:21:59;3.83;;;1.10;;
71763;SDS011;59602;52.142;5.408;2023-06-14T02:24:26;3.67;;;1.25;;
71763;SDS011;59602;52.142;5.408;2023-06-14T02:26:53;3.17;;;1.38;;
71763;SDS011;59602;52.142;5.408;2023-06-14T02:29:19;3.37;;;1.20;;
71763;SDS011;59602;52.142;5.408;2023-06-14T02:31:47;5.70;;;1.30;;
71763;SDS011;59602;52.142;5.408;2023-06-14T02:34:15;3.03;;;1.30;;
71763;SDS011;59602;52.142;5.408;2023-06-14T02:36:44;4.60;;;1.80;;
71763;SDS011;59602;52.142;5.408;2023-06-14T02:39:10;3.40;;;1.20;;
71763;SDS011;59602;52.142;5.408;2023-06-14T02:41:37;4.13;;;1.23;;
71763;SDS011;59602;52.142;5.408;2023-06-14T02:44:05;3.40;;;1.55;;
71763;SDS011;59602;52.142;5.408;2023-06-14T02:46:32;3.88;;;1.27;;
71763;SDS011;59602;52.142;5.408;2023-06-14T02:48:59;2.55;;;1.48;;
71763;SDS011;59602;52.142;5.408;2023-06-14T02:51:26;3.83;;;1.20;;
71763;SDS011;59602;52.142;5.408;2023-06-14T02:53:53;3.70;;;1.27;;
71763;SDS011;59602;52.142;5.408;2023-06-14T02:56:19;3.17;;;0.80;;
71763;SDS011;59602;52.142;5.408;2023-06-14T02:58:46;4.93;;;1.27;;
71763;SDS011;59602;52.142;5.408;2023-06-14T03:01:15;3.08;;;1.08;;
71763;SDS011;59602;52.142;5.408;2023-06-14T03:03:42;3.72;;;1.30;;
71763;SDS011;59602;52.142;5.408;2023-06-14T03:06:09;7.53;;;1.43;;
71763;SDS011;59602;52.142;5.408;2023-06-14T03:08:39;6.00;;;1.55;;
71763;SDS011;59602;52.142;5.408;2023-06-14T03:11:07;3.45;;;1.27;;
71763;SDS011;59602;52.142;5.408;2023-06-14T03:13:35;5.13;;;1.20;;
71763;SDS011;59602;52.142;5.408;2023-06-14T03:16:01;4.30;;;1.50;;
71763;SDS011;59602;52.142;5.408;2023-06-14T03:18:29;3.13;;;1.23;;
71763;SDS011;59602;52.142;5.408;2023-06-14T03:20:57;5.13;;;1.45;;
71763;SDS011;59602;52.142;5.408;2023-06-14T03:23:24;2.97;;;1.00;;
71763;SDS011;59602;52.142;5.408;2023-06-14T03:25:51;5.60;;;1.50;;
71763;SDS011;59602;52.142;5.408;2023-06-14T03:28:18;4.85;;;1.00;;
71763;SDS011;59602;52.142;5.408;2023-06-14T03:30:45;3.73;;;1.03;;
71763;SDS011;59602;52.142;5.408;2023-06-14T03:33:11;3.45;;;1.13;;
71763;SDS011;59602;52.142;5.408;2023-06-14T03:35:38;5.30;;;1.05;;
71763;SDS011;59602;52.142;5.408;2023-06-14T03:38:05;3.10;;;1.13;;
71763;SDS011;59602;52.142;5.408;2023-06-14T03:40:31;3.35;;;0.95;;
71763;SDS011;59602;52.142;5.408;2023-06-14T03:42:58;2.93;;;0.93;;
71763;SDS011;59602;52.142;5.408;2023-06-14T03:45:25;3.95;;;1.40;;
71763;SDS011;59602;52.142;5.408;2023-06-14T03:47:51;3.03;;;1.10;;
71763;SDS011;59602;52.142;5.408;2023-06-14T03:50:19;4.13;;;1.20;;
71763;SDS011;59602;52.142;5.408;2023-06-14T03:52:47;4.35;;;1.10;;
71763;SDS011;59602;52.142;5.408;2023-06-14T03:55:15;5.70;;;1.50;;
71763;SDS011;59602;52.142;5.408;2023-06-14T03:57:45;5.35;;;1.20;;
71763;SDS011;59602;52.142;5.408;2023-06-14T04:00:12;5.38;;;1.00;;
71763;SDS011;59602;52.142;5.408;2023-06-14T04:02:39;5.43;;;1.30;;
71763;SDS011;59602;52.142;5.408;2023-06-14T04:05:06;5.22;;;1.23;;
71763;SDS011;59602;52.142;5.408;2023-06-14T04:07:35;6.10;;;1.33;;
71763;SDS011;59602;52.142;5.408;2023-06-14T04:10:06;2.53;;;1.08;;
71763;SDS011;59602;52.142;5.408;2023-06-14T04:12:35;6.18;;;1.15;;
71763;SDS011;59602;52.142;5.408;2023-06-14T04:15:01;4.60;;;1.38;;
71763;SDS011;59602;52.142;5.408;2023-06-14T04:17:45;6.82;;;1.58;;
71763;SDS011;59602;52.142;5.408;2023-06-14T04:20:12;4.13;;;2.00;;
71763;SDS011;59602;52.142;5.408;2023-06-14T04:22:39;4.85;;;1.40;;
71763;SDS011;59602;52.142;5.408;2023-06-14T04:25:07;3.75;;;1.17;;
71763;SDS011;59602;52.142;5.408;2023-06-14T04:27:34;3.33;;;1.30;;
71763;SDS011;59602;52.142;5.408;2023-06-14T04:30:02;4.32;;;1.65;;
71763;SDS011;59602;52.142;5.408;2023-06-14T04:32:30;4.23;;;1.00;;
71763;SDS011;59602;52.142;5.408;2023-06-14T04:35:00;3.90;;;1.20;;
71763;SDS011;59602;52.142;5.408;2023-06-14T04:37:28;3.60;;;1.40;;
71763;SDS011;59602;52.142;5.408;2023-06-14T04:39:56;4.85;;;1.17;;
71763;SDS011;59602;52.142;5.408;2023-06-14T04:42:24;3.65;;;0.93;;
71763;SDS011;59602;52.142;5.408;2023-06-14T04:44:57;5.00;;;1.27;;
71763;SDS011;59602;52.142;5.408;2023-06-14T04:47:24;3.53;;;1.25;;
71763;SDS011;59602;52.142;5.408;2023-06-14T04:49:56;5.75;;;1.73;;
71763;SDS011;59602;52.142;5.408;2023-06-14T04:52:24;3.78;;;1.20;;
71763;SDS011;59602;52.142;5.408;2023-06-14T04:54:52;5.25;;;1.30;;
71763;SDS011;59602;52.142;5.408;2023-06-14T04:57:20;3.83;;;1.37;;
71763;SDS011;59602;52.142;5.408;2023-06-14T04:59:51;5.53;;;1.35;;
71763;SDS011;59602;52.142;5.408;2023-06-14T05:02:24;3.70;;;1.70;;
71763;SDS011;59602;52.142;5.408;2023-06-14T05:04:52;4.97;;;1.20;;
71763;SDS011;59602;52.142;5.408;2023-06-14T05:07:19;3.72;;;1.27;;
71763;SDS011;59602;52.142;5.408;2023-06-14T05:09:46;2.93;;;1.53;;
71763;SDS011;59602;52.142;5.408;2023-06-14T05:12:13;2.63;;;1.30;;
71763;SDS011;59602;52.142;5.408;2023-06-14T05:14:40;4.22;;;1.60;;
71763;SDS011;59602;52.142;5.408;2023-06-14T05:17:09;4.38;;;1.55;;
71763;SDS011;59602;52.142;5.408;2023-06-14T05:19:36;6.30;;;1.35;;
71763;SDS011;59602;52.142;5.408;2023-06-14T05:22:03;4.63;;;1.20;;
71763;SDS011;59602;52.142;5.408;2023-06-14T05:24:33;4.57;;;1.40;;
71763;SDS011;59602;52.142;5.408;2023-06-14T05:27:00;6.13;;;1.50;;
71763;SDS011;59602;52.142;5.408;2023-06-14T05:29:27;4.43;;;1.30;;
71763;SDS011;59602;52.142;5.408;2023-06-14T05:31:56;4.10;;;1.33;;
71763;SDS011;59602;52.142;5.408;2023-06-14T05:34:23;2.63;;;1.30;;
71763;SDS011;59602;52.142;5.408;2023-06-14T05:36:49;5.32;;;1.40;;
71763;SDS011;59602;52.142;5.408;2023-06-14T05:39:16;4.72;;;1.67;;
71763;SDS011;59602;52.142;5.408;2023-06-14T05:41:43;3.20;;;1.55;;
71763;SDS011;59602;52.142;5.408;2023-06-14T05:44:10;2.95;;;1.25;;
71763;SDS011;59602;52.142;5.408;2023-06-14T05:46:36;4.33;;;1.30;;
71763;SDS011;59602;52.142;5.408;2023-06-14T05:51:53;4.25;;;1.27;;
71763;SDS011;59602;52.142;5.408;2023-06-14T05:54:21;5.85;;;1.88;;
71763;SDS011;59602;52.142;5.408;2023-06-14T05:56:47;6.10;;;1.85;;
71763;SDS011;59602;52.142;5.408;2023-06-14T05:59:17;3.27;;;1.60;;
71763;SDS011;59602;52.142;5.408;2023-06-14T06:02:08;6.80;;;1.65;;
71763;SDS011;59602;52.142;5.408;2023-06-14T06:04:53;5.50;;;1.48;;
71763;SDS011;59602;52.142;5.408;2023-06-14T06:10:29;4.00;;;1.55;;
71763;SDS011;59602;52.142;5.408;2023-06-14T06:12:56;4.33;;;1.50;;
71763;SDS011;59602;52.142;5.408;2023-06-14T06:16:05;5.03;;;1.52;;
71763;SDS011;59602;52.142;5.408;2023-06-14T06:18:52;3.70;;;1.63;;
71763;SDS011;59602;52.142;5.408;2023-06-14T06:21:19;4.85;;;1.80;;
71763;SDS011;59602;52.142;5.408;2023-06-14T06:23:48;11.38;;;2.63;;
71763;SDS011;59602;52.142;5.408;2023-06-14T06:26:15;5.70;;;1.83;;
71763;SDS011;59602;52.142;5.408;2023-06-14T06:28:43;2.20;;;1.20;;
71763;SDS011;59602;52.142;5.408;2023-06-14T06:31:43;3.00;;;1.42;;
71763;SDS011;59602;52.142;5.408;2023-06-14T06:34:06;5.50;;;1.40;;
71763;SDS011;59602;52.142;5.408;2023-06-14T06:36:58;4.30;;;1.80;;
71763;SDS011;59602;52.142;5.408;2023-06-14T06:39:27;4.13;;;1.50;;
71763;SDS011;59602;52.142;5.408;2023-06-14T06:41:58;8.90;;;2.30;;
71763;SDS011;59602;52.142;5.408;2023-06-14T07:14:12;2.55;;;1.30;;
71763;SDS011;59602;52.142;5.408;2023-06-14T07:18:17;3.50;;;1.80;;
71763;SDS011;59602;52.142;5.408;2023-06-14T07:30:01;3.58;;;2.00;;
71763;SDS011;59602;52.142;5.408;2023-06-14T07:32:33;2.50;;;1.38;;
71763;SDS011;59602;52.142;5.408;2023-06-14T07:39:18;5.37;;;1.17;;
71763;SDS011;59602;52.142;5.408;2023-06-14T07:45:33;3.03;;;1.38;;
71763;SDS011;59602;52.142;5.408;2023-06-14T07:48:48;4.60;;;1.20;;
71763;SDS011;59602;52.142;5.408;2023-06-14T07:55:58;5.27;;;1.10;;
71763;SDS011;59602;52.142;5.408;2023-06-14T08:03:16;4.00;;;1.08;;
71763;SDS011;59602;52.142;5.408;2023-06-14T08:06:08;6.13;;;1.20;;
71763;SDS011;59602;52.142;5.408;2023-06-14T08:11:51;2.00;;;1.00;;
71763;SDS011;59602;52.142;5.408;2023-06-14T08:28:17;3.90;;;0.80;;
71763;SDS011;59602;52.142;5.408;2023-06-14T08:38:54;2.40;;;0.70;;
71763;SDS011;59602;52.142;5.408;2023-06-14T08:41:42;5.32;;;1.00;;
71763;SDS011;59602;52.142;5.408;2023-06-14T08:44:49;1.67;;;0.57;;
71763;SDS011;59602;52.142;5.408;2023-06-14T09:03:21;1.58;;;0.50;;
71763;SDS011;59602;52.142;5.408;2023-06-14T09:06:19;1.05;;;0.57;;
71763;SDS011;59602;52.142;5.408;2023-06-14T09:12:32;2.95;;;0.77;;
71763;SDS011;59602;52.142;5.408;2023-06-14T09:19:46;1.92;;;0.80;;
71763;SDS011;59602;52.142;5.408;2023-06-14T09:22:29;3.15;;;0.80;;
71763;SDS011;59602;52.142;5.408;2023-06-14T09:34:51;2.20;;;0.73;;
71763;SDS011;59602;52.142;5.408;2023-06-14T09:45:07;1.70;;;0.70;;
71763;SDS011;59602;52.142;5.408;2023-06-14T09:58:12;1.45;;;0.60;;
71763;SDS011;59602;52.142;5.408;2023-06-14T10:05:06;2.10;;;0.73;;
71763;SDS011;59602;52.142;5.408;2023-06-14T10:11:07;1.70;;;0.80;;
71763;SDS011;59602;52.142;5.408;2023-06-14T10:33:20;1.95;;;0.80;;
71763;SDS011;59602;52.142;5.408;2023-06-14T10:40:55;4.00;;;0.90;;
71763;SDS011;59602;52.142;5.408;2023-06-14T10:50:03;3.28;;;0.70;;
71763;SDS011;59602;52.142;5.408;2023-06-14T11:04:06;3.50;;;0.75;;
71763;SDS011;59602;52.142;5.408;2023-06-14T16:48:28;1.08;;;0.90;;
71763;SDS011;59602;52.142;5.408;2023-06-14T16:59:16;5.13;;;1.02;;
71763;SDS011;59602;52.142;5.408;2023-06-14T17:11:42;4.50;;;1.08;;
71763;SDS011;59602;52.142;5.408;2023-06-14T17:17:49;1.50;;;0.68;;
71763;SDS011;59602;52.142;5.408;2023-06-14T17:20:44;5.50;;;0.80;;
71763;SDS011;59602;52.142;5.408;2023-06-14T17:23:11;1.53;;;0.83;;
71763;SDS011;59602;52.142;5.408;2023-06-14T17:26:02;1.50;;;0.70;;
71763;SDS011;59602;52.142;5.408;2023-06-14T17:29:25;2.80;;;1.10;;
71763;SDS011;59602;52.142;5.408;2023-06-14T17:36:19;6.57;;;1.15;;
71763;SDS011;59602;52.142;5.408;2023-06-14T17:42:11;1.35;;;0.90;;
71763;SDS011;59602;52.142;5.408;2023-06-14T17:45:50;2.63;;;0.90;;
71763;SDS011;59602;52.142;5.408;2023-06-14T17:48:22;2.05;;;0.80;;
71763;SDS011;59602;52.142;5.408;2023-06-14T18:01:24;2.63;;;1.00;;
71763;SDS011;59602;52.142;5.408;2023-06-14T18:20:55;2.70;;;0.82;;
71763;SDS011;59602;52.142;5.408;2023-06-14T18:27:44;1.70;;;0.80;;
71763;SDS011;59602;52.142;5.408;2023-06-14T18:30:56;3.05;;;0.70;;
71763;SDS011;59602;52.142;5.408;2023-06-14T18:34:02;1.52;;;0.82;;
71763;SDS011;59602;52.142;5.408;2023-06-14T18:41:46;2.40;;;0.90;;
71763;SDS011;59602;52.142;5.408;2023-06-14T18:51:14;1.15;;;0.75;;
71763;SDS011;59602;52.142;5.408;2023-06-14T18:58:43;1.88;;;0.82;;
71763;SDS011;59602;52.142;5.408;2023-06-14T19:01:02;2.40;;;0.87;;
71763;SDS011;59602;52.142;5.408;2023-06-14T19:03:46;1.20;;;0.80;;
71763;SDS011;59602;52.142;5.408;2023-06-14T19:06:38;1.50;;;0.70;;
71763;SDS011;59602;52.142;5.408;2023-06-14T19:09:20;2.50;;;0.65;;
71763;SDS011;59602;52.142;5.408;2023-06-14T19:12:31;2.72;;;0.70;;
71763;SDS011;59602;52.142;5.408;2023-06-14T19:14:42;1.10;;;0.70;;
71763;SDS011;59602;52.142;5.408;2023-06-14T19:17:34;2.92;;;0.77;;
71763;SDS011;59602;52.142;5.408;2023-06-14T19:20:01;2.78;;;1.00;;
71763;SDS011;59602;52.142;5.408;2023-06-14T19:22:28;3.67;;;0.80;;
71763;SDS011;59602;52.142;5.408;2023-06-14T19:24:55;2.05;;;0.90;;
71763;SDS011;59602;52.142;5.408;2023-06-14T19:27:22;4.90;;;0.90;;
71763;SDS011;59602;52.142;5.408;2023-06-14T19:29:48;2.50;;;0.80;;
71763;SDS011;59602;52.142;5.408;2023-06-14T19:32:18;2.67;;;1.10;;
71763;SDS011;59602;52.142;5.408;2023-06-14T19:35:06;1.55;;;0.75;;
71763;SDS011;59602;52.142;5.408;2023-06-14T19:37:36;1.80;;;0.80;;
71763;SDS011;59602;52.142;5.408;2023-06-14T19:40:06;2.80;;;0.90;;
71763;SDS011;59602;52.142;5.408;2023-06-14T19:42:57;1.73;;;1.00;;
71763;SDS011;59602;52.142;5.408;2023-06-14T19:45:45;1.98;;;0.82;;
71763;SDS011;59602;52.142;5.408;2023-06-14T19:48:11;3.65;;;0.85;;
71763;SDS011;59602;52.142;5.408;2023-06-14T19:51:00;4.85;;;0.93;;
71763;SDS011;59602;52.142;5.408;2023-06-14T19:53:27;2.70;;;0.77;;
71763;SDS011;59602;52.142;5.408;2023-06-14T19:55:54;6.28;;;1.02;;
71763;SDS011;59602;52.142;5.408;2023-06-14T19:58:47;2.75;;;0.93;;
71763;SDS011;59602;52.142;5.408;2023-06-14T20:01:38;1.90;;;1.20;;
71763;SDS011;59602;52.142;5.408;2023-06-14T20:04:05;2.72;;;0.80;;
71763;SDS011;59602;52.142;5.408;2023-06-14T20:06:34;3.90;;;1.00;;
71763;SDS011;59602;52.142;5.408;2023-06-14T20:09:01;4.47;;;0.68;;
71763;SDS011;59602;52.142;5.408;2023-06-14T20:11:53;3.85;;;0.98;;
71763;SDS011;59602;52.142;5.408;2023-06-14T20:14:20;1.98;;;0.90;;
71763;SDS011;59602;52.142;5.408;2023-06-14T20:16:46;1.38;;;1.02;;
71763;SDS011;59602;52.142;5.408;2023-06-14T20:19:13;1.87;;;0.80;;
71763;SDS011;59602;52.142;5.408;2023-06-14T20:21:41;1.73;;;0.98;;
71763;SDS011;59602;52.142;5.408;2023-06-14T20:24:07;1.42;;;0.93;;
71763;SDS011;59602;52.142;5.408;2023-06-14T20:26:34;1.73;;;0.98;;
71763;SDS011;59602;52.142;5.408;2023-06-14T20:29:03;2.58;;;0.90;;
71763;SDS011;59602;52.142;5.408;2023-06-14T20:31:30;3.00;;;1.00;;
71763;SDS011;59602;52.142;5.408;2023-06-14T20:33:59;2.35;;;1.27;;
71763;SDS011;59602;52.142;5.408;2023-06-14T20:36:25;1.40;;;1.00;;
71763;SDS011;59602;52.142;5.408;2023-06-14T20:38:56;1.77;;;1.00;;
71763;SDS011;59602;52.142;5.408;2023-06-14T20:41:23;1.60;;;0.90;;
71763;SDS011;59602;52.142;5.408;2023-06-14T20:43:51;1.80;;;1.03;;
71763;SDS011;59602;52.142;5.408;2023-06-14T20:46:19;1.90;;;1.25;;
71763;SDS011;59602;52.142;5.408;2023-06-14T20:48:46;2.00;;;0.82;;
71763;SDS011;59602;52.142;5.408;2023-06-14T20:51:18;1.30;;;0.80;;
71763;SDS011;59602;52.142;5.408;2023-06-14T20:53:45;3.55;;;0.90;;
71763;SDS011;59602;52.142;5.408;2023-06-14T20:56:12;2.90;;;0.77;;
71763;SDS011;59602;52.142;5.408;2023-06-14T20:58:41;2.22;;;0.75;;
71763;SDS011;59602;52.142;5.408;2023-06-14T21:01:31;1.88;;;0.90;;
71763;SDS011;59602;52.142;5.408;2023-06-14T21:04:50;4.15;;;1.00;;
71763;SDS011;59602;52.142;5.408;2023-06-14T21:07:37;2.35;;;1.02;;
71763;SDS011;59602;52.142;5.408;2023-06-14T21:10:41;1.77;;;0.70;;
71763;SDS011;59602;52.142;5.408;2023-06-14T21:13:32;2.55;;;0.80;;
71763;SDS011;59602;52.142;5.408;2023-06-14T21:15:59;1.67;;;1.00;;
71763;SDS011;59602;52.142;5.408;2023-06-14T21:18:47;2.72;;;0.90;;
71763;SDS011;59602;52.142;5.408;2023-06-14T21:21:16;1.92;;;1.00;;
71763;SDS011;59602;52.142;5.408;2023-06-14T21:24:08;4.13;;;1.33;;
71763;SDS011;59602;52.142;5.408;2023-06-14T21:26:41;3.42;;;0.82;;
71763;SDS011;59602;52.142;5.408;2023-06-14T21:29:12;2.40;;;0.77;;
71763;SDS011;59602;52.142;5.408;2023-06-14T21:32:10;2.90;;;0.85;;
71763;SDS011;59602;52.142;5.408;2023-06-14T21:34:37;1.40;;;0.70;;
71763;SDS011;59602;52.142;5.408;2023-06-14T21:37:05;3.07;;;0.80;;
71763;SDS011;59602;52.142;5.408;2023-06-14T21:39:55;3.53;;;0.77;;
71763;SDS011;59602;52.142;5.408;2023-06-14T21:42:22;3.53;;;0.80;;
71763;SDS011;59602;52.142;5.408;2023-06-14T21:44:51;2.08;;;0.80;;
71763;SDS011;59602;52.142;5.408;2023-06-14T21:47:38;3.90;;;1.10;;
71763;SDS011;59602;52.142;5.408;2023-06-14T21:50:24;2.37;;;0.80;;
71763;SDS011;59602;52.142;5.408;2023-06-14T21:53:48;1.63;;;0.80;;
71763;SDS011;59602;52.142;5.408;2023-06-14T21:56:51;1.58;;;0.95;;
71763;SDS011;59602;52.142;5.408;2023-06-14T21:59:41;2.30;;;0.85;;
71763;SDS011;59602;52.142;5.408;2023-06-14T22:05:26;2.33;;;0.90;;
71763;SDS011;59602;52.142;5.408;2023-06-14T22:08:31;3.53;;;1.00;;
71763;SDS011;59602;52.142;5.408;2023-06-14T22:11:14;3.95;;;1.00;;
71763;SDS011;59602;52.142;5.408;2023-06-14T22:13:40;1.92;;;0.70;;
71763;SDS011;59602;52.142;5.408;2023-06-14T22:16:10;3.17;;;1.55;;
71763;SDS011;59602;52.142;5.408;2023-06-14T22:19:11;1.93;;;1.03;;
71763;SDS011;59602;52.142;5.408;2023-06-14T22:21:44;4.28;;;1.10;;
71763;SDS011;59602;52.142;5.408;2023-06-14T22:24:38;1.70;;;0.90;;
71763;SDS011;59602;52.142;5.408;2023-06-14T22:27:09;1.75;;;0.90;;
71763;SDS011;59602;52.142;5.408;2023-06-14T22:30:13;3.95;;;0.98;;
71763;SDS011;59602;52.142;5.408;2023-06-14T22:33:16;3.30;;;1.10;;
71763;SDS011;59602;52.142;5.408;2023-06-14T22:36:13;3.28;;;0.98;;
71763;SDS011;59602;52.142;5.408;2023-06-14T22:39:05;2.47;;;1.20;;
71763;SDS011;59602;52.142;5.408;2023-06-14T22:42:06;4.88;;;0.85;;
71763;SDS011;59602;52.142;5.408;2023-06-14T22:45:08;2.92;;;1.17;;
71763;SDS011;59602;52.142;5.408;2023-06-14T22:48:11;2.60;;;0.97;;
71763;SDS011;59602;52.142;5.408;2023-06-14T22:50:41;2.03;;;1.00;;
71763;SDS011;59602;52.142;5.408;2023-06-14T22:53:07;3.78;;;1.20;;
71763;SDS011;59602;52.142;5.408;2023-06-14T22:56:19;6.15;;;1.10;;
71763;SDS011;59602;52.142;5.408;2023-06-14T22:58:50;4.28;;;1.40;;
71763;SDS011;59602;52.142;5.408;2023-06-14T23:01:19;3.67;;;1.47;;
71763;SDS011;59602;52.142;5.408;2023-06-14T23:04:26;4.32;;;1.30;;
71763;SDS011;59602;52.142;5.408;2023-06-14T23:06:53;1.95;;;1.50;;
71763;SDS011;59602;52.142;5.408;2023-06-14T23:09:21;2.03;;;1.05;;
71763;SDS011;59602;52.142;5.408;2023-06-14T23:11:48;2.67;;;1.13;;
71763;SDS011;59602;52.142;5.408;2023-06-14T23:14:15;3.10;;;1.50;;
71763;SDS011;59602;52.142;5.408;2023-06-14T23:16:43;1.52;;;1.10;;
71763;SDS011;59602;52.142;5.408;2023-06-14T23:19:12;2.88;;;1.05;;
71763;SDS011;59602;52.142;5.408;2023-06-14T23:21:40;1.63;;;1.05;;
71763;SDS011;59602;52.142;5.408;2023-06-14T23:24:07;3.35;;;1.70;;
71763;SDS011;59602;52.142;5.408;2023-06-14T23:26:34;2.93;;;1.57;;
71763;SDS011;59602;52.142;5.408;2023-06-14T23:29:04;2.97;;;1.50;;
71763;SDS011;59602;52.142;5.408;2023-06-14T23:31:31;5.82;;;1.25;;
71763;SDS011;59602;52.142;5.408;2023-06-14T23:33:59;4.80;;;1.67;;
71763;SDS011;59602;52.142;5.408;2023-06-14T23:36:27;1.67;;;1.08;;
71763;SDS011;59602;52.142;5.408;2023-06-14T23:38:58;2.60;;;1.30;;
71763;SDS011;59602;52.142;5.408;2023-06-14T23:41:26;3.05;;;1.52;;
71763;SDS011;59602;52.142;5.408;2023-06-14T23:43:58;4.57;;;1.77;;
71763;SDS011;59602;52.142;5.408;2023-06-14T23:46:27;4.20;;;1.50;;
71763;SDS011;59602;52.142;5.408;2023-06-14T23:48:55;2.55;;;1.70;;
71763;SDS011;59602;52.142;5.408;2023-06-14T23:51:23;4.13;;;1.50;;
71763;SDS011;59602;52.142;5.408;2023-06-14T23:53:52;3.35;;;1.63;;
71763;SDS011;59602;52.142;5.408;2023-06-14T23:56:21;3.90;;;1.90;;
71763;SDS011;59602;52.142;5.408;2023-06-14T23:58:51;4.88;;;2.08;;
